Time;durP1;ratioP1;P1;durP2;ratioP2;P2;SDS_P1;SDS_P2;PMS_P1;PMS_P2;Temp;Humidity;BMP_temperature;BMP_pressure;BME280_temperature;BME280_humidity;BME280_pressure;Samples;Min_cycle;Max_cycle;Signal;HPM_P1;HPM_P2
2022/07/13 00:01:34;;;;;;;4.93;1.00;;;28.20;33.20;;;;;;6104855;29;20694;-75
2022/07/13 00:04:35;;;;;;;3.92;1.10;;;28.20;33.30;;;;;;6131236;29;20027;-74
2022/07/13 00:07:36;;;;;;;5.03;1.08;;;28.20;33.40;;;;;;6140584;29;20101;-75
2022/07/13 00:10:37;;;;;;;1.58;0.80;;;28.30;33.30;;;;;;6125878;28;20035;-74
2022/07/13 00:13:38;;;;;;;0.90;0.90;;;28.40;33.30;;;;;;6142504;28;20082;-75
2022/07/13 00:16:40;;;;;;;1.73;1.00;;;28.40;33.30;;;;;;6143184;28;20051;-74
2022/07/13 00:19:41;;;;;;;0.80;0.80;;;28.40;33.30;;;;;;6125780;29;20027;-75
2022/07/13 00:22:42;;;;;;;5.07;1.08;;;28.40;33.30;;;;;;6136456;28;20031;-75
2022/07/13 00:25:43;;;;;;;2.78;1.10;;;28.40;33.50;;;;;;6108587;29;20090;-75
2022/07/13 00:28:53;;;;;;;4.28;0.90;;;28.40;33.50;;;;;;6116137;29;20512;-75
2022/07/13 00:31:57;;;;;;;4.57;0.90;;;28.40;33.60;;;;;;6130565;29;20090;-75
2022/07/13 00:34:58;;;;;;;3.22;0.90;;;28.40;33.60;;;;;;6124626;29;20167;-75
2022/07/13 00:38:00;;;;;;;1.38;0.90;;;28.30;33.70;;;;;;6142455;29;20027;-75
2022/07/13 00:41:03;;;;;;;1.60;0.77;;;28.30;33.80;;;;;;6141758;28;20055;-75
2022/07/13 00:44:08;;;;;;;1.65;1.00;;;28.20;34.00;;;;;;6130781;29;20093;-75
2022/07/13 00:47:10;;;;;;;5.85;1.10;;;28.20;34.20;;;;;;6140428;28;20035;-75
2022/07/13 00:50:12;;;;;;;1.15;0.70;;;28.00;34.10;;;;;;6129212;29;20076;-75
2022/07/13 00:53:14;;;;;;;2.40;1.00;;;28.10;34.20;;;;;;6124596;28;20046;-74
2022/07/13 00:56:16;;;;;;;1.48;0.93;;;28.10;34.30;;;;;;6136451;28;20111;-75
2022/07/13 00:59:17;;;;;;;1.00;0.90;;;28.00;34.30;;;;;;6123529;29;20031;-74
2022/07/13 01:02:18;;;;;;;1.88;1.17;;;28.00;34.40;;;;;;6130769;29;20663;-74
2022/07/13 01:05:19;;;;;;;2.15;0.90;;;27.90;34.40;;;;;;6117843;29;20028;-74
2022/07/13 01:08:21;;;;;;;0.98;0.73;;;27.90;34.50;;;;;;6123975;29;20523;-75
2022/07/13 01:11:23;;;;;;;1.20;0.85;;;27.90;34.70;;;;;;6141404;28;20027;-75
2022/07/13 01:14:24;;;;;;;4.22;1.23;;;27.80;34.90;;;;;;6145118;28;20114;-75
2022/07/13 01:17:26;;;;;;;1.13;0.80;;;27.70;35.00;;;;;;6120733;29;20027;-75
2022/07/13 01:20:28;;;;;;;3.80;1.13;;;27.70;35.20;;;;;;6142172;28;20094;-75
2022/07/13 01:23:30;;;;;;;5.47;1.00;;;27.70;35.30;;;;;;6128683;28;20062;-75
2022/07/13 01:26:31;;;;;;;4.88;0.90;;;27.70;35.50;;;;;;6108646;29;20124;-75
2022/07/13 01:29:33;;;;;;;1.95;1.13;;;27.60;35.80;;;;;;6142015;29;20046;-75
2022/07/13 01:32:48;;;;;;;1.42;1.00;;;27.40;35.90;;;;;;6129160;28;20122;-74
2022/07/13 01:35:49;;;;;;;3.45;0.90;;;27.30;36.10;;;;;;6122386;29;20381;-75
2022/07/13 01:38:50;;;;;;;1.08;0.73;;;27.30;36.20;;;;;;6106064;29;20377;-75
2022/07/13 01:41:52;;;;;;;1.00;0.90;;;27.20;36.30;;;;;;6112809;29;20039;-75
2022/07/13 01:44:54;;;;;;;1.15;0.75;;;27.20;36.50;;;;;;6124768;29;20027;-75
2022/07/13 01:47:57;;;;;;;1.45;0.80;;;27.10;36.50;;;;;;6118147;29;20023;-75
2022/07/13 01:50:59;;;;;;;1.08;0.80;;;27.10;36.60;;;;;;6099670;29;20031;-75
2022/07/13 01:54:01;;;;;;;1.77;0.85;;;27.10;36.70;;;;;;6109128;29;20027;-75
2022/07/13 01:57:02;;;;;;;1.98;0.95;;;27.00;36.70;;;;;;6129791;29;20061;-75
2022/07/13 02:00:08;;;;;;;1.48;1.00;;;27.00;36.70;;;;;;6112230;29;20031;-75
2022/07/13 02:03:12;;;;;;;4.90;1.00;;;27.00;37.00;;;;;;6140970;28;20039;-75
2022/07/13 02:06:13;;;;;;;3.13;1.10;;;27.00;37.10;;;;;;6145530;29;20123;-75
2022/07/13 02:09:14;;;;;;;4.28;0.88;;;26.90;37.20;;;;;;6132033;29;20019;-75
2022/07/13 02:12:17;;;;;;;2.75;0.90;;;26.80;37.40;;;;;;6130617;29;20047;-75
2022/07/13 02:15:18;;;;;;;2.22;1.00;;;26.80;37.60;;;;;;6115231;29;20083;-76
2022/07/13 02:18:19;;;;;;;10.55;1.13;;;26.70;37.80;;;;;;6132806;28;20032;-76
2022/07/13 02:21:20;;;;;;;1.38;1.00;;;26.60;38.10;;;;;;6096108;29;20031;-75
2022/07/13 02:24:22;;;;;;;1.30;1.08;;;26.70;38.40;;;;;;6103703;29;20028;-75
2022/07/13 02:27:24;;;;;;;1.95;1.02;;;26.50;38.30;;;;;;6120663;29;20369;-75
2022/07/13 02:30:25;;;;;;;2.83;0.95;;;26.40;38.50;;;;;;6102537;29;20110;-75
2022/07/13 02:33:26;;;;;;;3.58;1.00;;;26.40;38.70;;;;;;6107356;29;20083;-76
2022/07/13 02:36:27;;;;;;;0.98;0.90;;;26.40;38.80;;;;;;6110498;29;20039;-75
2022/07/13 02:39:29;;;;;;;2.38;0.90;;;26.40;38.90;;;;;;6087721;29;20039;-76
2022/07/13 02:42:31;;;;;;;1.63;1.00;;;26.40;38.90;;;;;;6103278;29;20023;-76
2022/07/13 02:45:32;;;;;;;1.92;1.30;;;26.40;39.00;;;;;;6090066;29;20028;-75
2022/07/13 02:48:33;;;;;;;4.03;1.38;;;26.40;39.00;;;;;;6104687;29;20035;-75
2022/07/13 02:51:35;;;;;;;2.25;1.17;;;26.30;38.90;;;;;;6082290;29;20114;-76
2022/07/13 02:54:37;;;;;;;1.00;0.90;;;26.30;39.00;;;;;;6090364;29;20035;-75
2022/07/13 02:57:38;;;;;;;1.65;0.90;;;26.30;39.20;;;;;;6096448;29;20032;-76
2022/07/13 03:00:41;;;;;;;3.47;1.35;;;26.30;39.30;;;;;;6082132;29;20040;-76
2022/07/13 03:03:43;;;;;;;7.63;1.92;;;26.20;39.30;;;;;;6119983;29;20024;-75
2022/07/13 03:06:45;;;;;;;1.85;1.30;;;26.20;39.40;;;;;;6107722;29;20024;-75
2022/07/13 03:09:46;;;;;;;3.70;1.85;;;26.20;39.40;;;;;;6097375;29;20462;-74
2022/07/13 03:12:47;;;;;;;1.27;1.15;;;26.10;39.30;;;;;;6083272;29;20035;-75
2022/07/13 03:15:48;;;;;;;2.13;1.00;;;26.10;39.30;;;;;;6102883;29;20214;-75
2022/07/13 03:18:49;;;;;;;1.63;1.02;;;26.10;39.40;;;;;;6109361;29;20042;-75
2022/07/13 03:21:51;;;;;;;1.20;0.88;;;26.10;39.40;;;;;;6107931;29;20082;-75
2022/07/13 03:24:52;;;;;;;1.38;1.08;;;26.00;39.10;;;;;;6118937;29;20036;-75
2022/07/13 03:27:54;;;;;;;1.15;0.85;;;26.00;38.90;;;;;;6112004;29;20031;-75
2022/07/13 03:30:55;;;;;;;2.78;1.08;;;25.90;38.70;;;;;;6104605;29;20118;-76
2022/07/13 03:33:57;;;;;;;1.70;1.60;;;25.90;38.70;;;;;;6100470;29;20046;-75
2022/07/13 03:36:58;;;;;;;6.55;1.20;;;25.90;38.70;;;;;;6107734;29;20035;-75
2022/07/13 03:39:59;;;;;;;5.95;1.20;;;25.80;38.70;;;;;;6107448;29;20020;-74
2022/07/13 03:43:01;;;;;;;3.22;1.60;;;25.70;38.70;;;;;;6090722;29;20226;-75
2022/07/13 03:46:03;;;;;;;2.17;1.30;;;25.70;38.80;;;;;;6117520;29;20031;-74
2022/07/13 03:49:05;;;;;;;3.50;1.05;;;25.60;38.80;;;;;;6098517;29;20031;-75
2022/07/13 03:52:06;;;;;;;1.42;1.10;;;25.50;38.90;;;;;;6107374;29;20168;-75
2022/07/13 03:55:08;;;;;;;2.35;1.00;;;25.50;39.00;;;;;;6088243;29;20067;-74
2022/07/13 03:58:12;;;;;;;0.95;0.90;;;25.50;39.10;;;;;;6100335;29;20046;-75
2022/07/13 04:01:19;;;;;;;2.38;1.20;;;25.40;39.00;;;;;;6119927;29;20036;-77
2022/07/13 04:04:22;;;;;;;1.48;0.82;;;25.40;39.10;;;;;;6094501;29;20126;-77
2022/07/13 04:07:25;;;;;;;4.15;1.17;;;25.40;39.20;;;;;;6093715;29;20020;-76
2022/07/13 04:10:26;;;;;;;4.65;1.00;;;25.40;39.30;;;;;;6102791;29;20055;-76
2022/07/13 04:13:27;;;;;;;2.03;1.25;;;25.40;39.40;;;;;;6103610;29;20038;-75
2022/07/13 04:16:29;;;;;;;2.38;1.20;;;25.40;39.50;;;;;;6117744;29;20058;-74
2022/07/13 04:19:30;;;;;;;4.07;1.48;;;25.40;39.60;;;;;;6134293;28;20015;-76
2022/07/13 04:22:32;;;;;;;4.82;1.10;;;25.40;39.80;;;;;;6121357;28;20035;-74
2022/07/13 04:25:33;;;;;;;1.58;1.10;;;25.30;39.60;;;;;;6127137;29;20162;-73
2022/07/13 04:28:35;;;;;;;2.30;1.00;;;25.30;39.60;;;;;;6127480;28;20046;-75
2022/07/13 04:31:37;;;;;;;2.90;1.10;;;25.30;39.60;;;;;;6139723;29;20034;-75
2022/07/13 04:34:38;;;;;;;2.95;1.20;;;25.20;39.60;;;;;;6142239;28;20050;-74
2022/07/13 04:37:41;;;;;;;1.42;1.10;;;25.20;39.70;;;;;;6142924;29;20046;-76
2022/07/13 04:40:42;;;;;;;5.07;1.00;;;25.20;39.80;;;;;;6114033;28;20031;-75
2022/07/13 04:43:45;;;;;;;1.20;0.80;;;25.20;40.00;;;;;;6123600;29;20373;-74
2022/07/13 04:46:49;;;;;;;3.47;1.23;;;25.10;40.00;;;;;;6102103;28;20027;-75
2022/07/13 08:40:46;;;;;;;4.65;1.17;;;30.40;30.50;;;;;;6021871;29;20072;-71
2022/07/13 08:43:47;;;;;;;9.93;1.40;;;30.50;31.00;;;;;;5993726;29;20041;-71
2022/07/13 08:46:49;;;;;;;5.88;2.13;;;30.60;30.10;;;;;;6022430;29;20038;-69
2022/07/13 08:49:54;;;;;;;2.70;1.50;;;30.70;30.00;;;;;;6013899;29;20414;-69
2022/07/13 08:52:55;;;;;;;9.15;1.55;;;30.80;30.00;;;;;;6008486;29;20037;-69
2022/07/13 08:55:57;;;;;;;11.07;3.65;;;30.80;29.90;;;;;;6008119;29;20101;-70
2022/07/13 08:58:58;;;;;;;9.30;3.72;;;30.90;29.60;;;;;;6010106;29;20403;-70
2022/07/13 09:02:00;;;;;;;3.63;1.70;;;31.10;29.40;;;;;;6024256;29;20033;-69
2022/07/13 09:05:10;;;;;;;7.93;2.35;;;31.10;29.00;;;;;;6023398;29;20041;-69
2022/07/13 09:08:12;;;;;;;5.30;2.47;;;31.10;28.70;;;;;;6012143;29;20033;-70
2022/07/13 09:11:13;;;;;;;16.10;5.45;;;31.20;28.70;;;;;;6007778;29;20030;-70
2022/07/13 09:14:33;;;;;;;14.93;4.32;;;31.30;28.60;;;;;;6008247;29;20098;-70
2022/07/13 09:17:37;;;;;;;11.93;4.68;;;31.30;28.60;;;;;;6011330;29;20029;-68
2022/07/13 09:20:38;;;;;;;3.67;2.35;;;31.40;28.60;;;;;;6021147;29;20373;-69
2022/07/13 09:23:40;;;;;;;5.70;1.65;;;31.40;28.40;;;;;;6015007;29;20037;-69
2022/07/13 09:26:43;;;;;;;5.22;1.58;;;31.60;28.50;;;;;;6000883;29;20126;-68
2022/07/13 09:29:44;;;;;;;7.80;1.15;;;31.50;28.40;;;;;;6015078;29;20038;-69
2022/07/13 09:32:45;;;;;;;2.75;0.95;;;31.50;28.50;;;;;;6015004;29;20069;-69
2022/07/13 09:35:49;;;;;;;8.55;1.30;;;31.60;28.60;;;;;;6030502;29;20367;-69
2022/07/13 09:38:53;;;;;;;3.10;0.93;;;31.60;28.60;;;;;;6015126;29;20072;-68
2022/07/13 09:41:55;;;;;;;8.48;1.48;;;31.70;28.60;;;;;;6015745;29;20296;-69
2022/07/13 09:48:22;;;;;;;8.27;1.60;;;31.90;28.50;;;;;;6014439;29;20354;-68
2022/07/13 09:51:27;;;;;;;2.40;1.10;;;32.00;28.30;;;;;;6028646;29;20081;-68
2022/07/13 09:54:30;;;;;;;3.67;1.27;;;32.00;28.30;;;;;;6031860;29;20030;-68
2022/07/13 09:57:37;;;;;;;6.88;1.30;;;31.90;28.20;;;;;;6032740;29;20034;-68
2022/07/13 10:00:38;;;;;;;10.45;1.40;;;32.00;28.30;;;;;;6008013;29;20114;-70
2022/07/13 10:03:40;;;;;;;7.93;1.10;;;32.10;28.20;;;;;;6015227;29;20049;-68
2022/07/13 10:06:41;;;;;;;4.40;1.20;;;32.10;28.10;;;;;;6012125;29;20034;-69
2022/07/13 10:09:43;;;;;;;1.63;1.20;;;32.20;27.90;;;;;;6014380;29;20519;-69
2022/07/13 10:12:44;;;;;;;3.05;1.00;;;32.30;27.90;;;;;;6011785;29;20697;-69
2022/07/13 10:15:47;;;;;;;8.30;1.38;;;32.40;27.60;;;;;;6011020;29;21809;-68
2022/07/13 10:18:48;;;;;;;3.88;1.17;;;32.50;27.50;;;;;;6015899;29;20059;-69
2022/07/13 10:22:11;;;;;;;6.30;1.00;;;32.60;27.50;;;;;;6011409;29;20129;-69
2022/07/13 10:25:13;;;;;;;1.77;0.90;;;32.70;27.30;;;;;;6013958;29;20371;-73
2022/07/13 10:28:19;;;;;;;2.10;1.10;;;32.70;27.10;;;;;;6013266;29;20459;-75
2022/07/13 10:31:27;;;;;;;3.92;1.50;;;32.70;27.00;;;;;;6011391;29;20029;-73
2022/07/13 10:34:54;;;;;;;3.88;1.83;;;32.70;27.00;;;;;;6026995;29;20062;-74
2022/07/13 10:38:03;;;;;;;3.63;1.30;;;32.80;27.10;;;;;;6011223;29;20077;-72
2022/07/13 10:41:22;;;;;;;1.25;0.88;;;32.90;27.00;;;;;;6022408;29;20117;-72
2022/07/13 10:44:52;;;;;;;1.00;0.95;;;33.00;26.90;;;;;;5989186;29;20045;-72
2022/07/13 10:47:54;;;;;;;3.42;1.20;;;33.10;26.80;;;;;;5963862;29;20038;-72
2022/07/13 10:50:57;;;;;;;0.80;0.80;;;33.30;26.80;;;;;;5970625;29;20137;-72
2022/07/13 10:54:01;;;;;;;9.27;1.02;;;33.40;26.70;;;;;;5955781;29;20581;-71
2022/07/13 10:57:16;;;;;;;7.28;1.90;;;33.50;26.50;;;;;;5974158;29;20524;-72
2022/07/13 11:00:24;;;;;;;11.60;1.60;;;33.60;26.50;;;;;;5952257;29;20031;-72
2022/07/13 11:03:26;;;;;;;2.97;1.33;;;33.80;26.50;;;;;;5964032;29;20346;-72
2022/07/13 11:06:29;;;;;;;2.38;1.10;;;33.80;26.40;;;;;;5965404;29;20031;-72
2022/07/13 11:09:30;;;;;;;3.13;1.17;;;34.00;26.30;;;;;;5979037;29;20079;-73
2022/07/13 11:12:32;;;;;;;7.05;1.17;;;34.70;25.60;;;;;;5966302;29;20532;-73
2022/07/13 11:15:47;;;;;;;8.90;1.23;;;35.60;24.90;;;;;;5953691;29;20041;-73
2022/07/13 11:18:53;;;;;;;2.97;1.17;;;36.50;23.60;;;;;;5964430;29;20425;-72
2022/07/13 11:22:12;;;;;;;4.05;0.80;;;37.20;22.90;;;;;;5967522;29;20045;-73
2022/07/13 11:25:47;;;;;;;1.58;0.98;;;37.60;21.90;;;;;;6016158;29;20538;-72
2022/07/13 11:29:07;;;;;;;1.77;1.00;;;38.10;21.40;;;;;;5971216;29;20048;-73
2022/07/13 11:32:08;;;;;;;4.97;0.82;;;38.30;21.00;;;;;;5993306;29;20073;-73
2022/07/13 11:35:09;;;;;;;0.82;0.80;;;38.50;20.70;;;;;;5972116;29;20376;-71
2022/07/13 11:38:11;;;;;;;2.00;0.93;;;38.70;20.40;;;;;;5995126;29;20175;-70
2022/07/13 11:41:20;;;;;;;3.30;1.02;;;38.90;20.10;;;;;;5978955;29;20038;-69
2022/07/13 11:44:24;;;;;;;3.20;1.55;;;39.10;20.10;;;;;;5981019;29;20102;-71
2022/07/13 11:47:27;;;;;;;5.05;1.10;;;39.20;20.20;;;;;;5987160;29;20107;-71
2022/07/13 11:50:45;;;;;;;2.92;0.82;;;39.20;20.30;;;;;;5981794;29;20130;-70
2022/07/13 15:51:25;;;;;;;1.90;1.80;;;44.70;17.50;;;;;;7311778;23;20051;31
2022/07/13 15:54:28;;;;;;;7.88;1.50;;;44.50;17.50;;;;;;5996133;29;20061;-71
2022/07/13 15:57:29;;;;;;;4.80;1.25;;;44.50;17.50;;;;;;5987550;29;20031;-72
2022/07/13 16:00:30;;;;;;;2.03;1.45;;;44.40;17.60;;;;;;5998956;29;20091;-73
2022/07/13 16:03:32;;;;;;;3.35;1.90;;;44.40;17.70;;;;;;5987809;29;20447;-72
2022/07/13 16:06:33;;;;;;;1.58;1.35;;;44.40;17.70;;;;;;5984875;29;20029;-72
2022/07/13 16:09:34;;;;;;;4.93;1.48;;;44.40;17.70;;;;;;5986956;29;20031;-71
2022/07/13 16:12:35;;;;;;;4.50;1.50;;;44.40;17.80;;;;;;5987410;29;20065;-72
2022/07/13 16:15:37;;;;;;;3.00;1.35;;;44.40;18.30;;;;;;5999573;29;20066;-72
2022/07/13 16:18:39;;;;;;;1.58;1.30;;;44.50;17.70;;;;;;5987183;29;20551;-71
2022/07/13 16:21:43;;;;;;;2.92;1.55;;;44.50;17.60;;;;;;5971520;29;20034;-72
2022/07/13 16:24:45;;;;;;;4.38;1.60;;;44.40;17.70;;;;;;6001226;29;20259;-73
2022/07/13 16:27:47;;;;;;;1.77;1.58;;;44.30;17.80;;;;;;5985524;29;20063;-71
2022/07/13 16:30:51;;;;;;;1.58;1.40;;;44.00;17.90;;;;;;5986972;29;20494;-71
2022/07/13 16:33:52;;;;;;;1.95;1.40;;;44.00;17.90;;;;;;5985793;29;20400;-73
2022/07/13 16:36:53;;;;;;;1.85;1.42;;;44.10;17.80;;;;;;5992506;29;20034;-72
2022/07/13 16:39:54;;;;;;;3.15;1.60;;;44.30;17.70;;;;;;5985235;29;20477;-72
2022/07/13 16:42:56;;;;;;;2.78;1.40;;;44.30;17.60;;;;;;5984343;29;20070;-71
2022/07/13 16:45:57;;;;;;;3.20;1.30;;;44.30;17.70;;;;;;5985335;29;20042;-71
2022/07/13 16:48:58;;;;;;;1.92;1.40;;;44.10;17.80;;;;;;5992095;29;20376;-71
2022/07/13 16:52:01;;;;;;;1.35;1.20;;;43.80;17.90;;;;;;5992266;29;20091;-70
2022/07/13 16:55:05;;;;;;;4.28;1.30;;;43.60;18.00;;;;;;6008686;29;20119;-72
2022/07/13 16:58:07;;;;;;;1.90;1.13;;;43.60;18.00;;;;;;6007084;29;20026;-71
2022/07/13 17:01:08;;;;;;;6.47;1.63;;;43.10;18.50;;;;;;6007231;29;20121;-71
2022/07/13 17:04:09;;;;;;;1.48;1.38;;;42.40;18.90;;;;;;6002073;29;20029;-70
2022/07/13 17:07:12;;;;;;;14.10;1.77;;;41.70;19.50;;;;;;6019556;29;20048;-72
2022/07/13 17:10:15;;;;;;;3.88;1.27;;;40.90;20.00;;;;;;6018893;29;20038;-72
2022/07/13 17:13:16;;;;;;;3.55;1.60;;;40.10;20.60;;;;;;6006951;29;20056;-72
2022/07/13 17:16:20;;;;;;;1.67;1.40;;;39.40;21.20;;;;;;6006503;29;20053;-72
2022/07/13 17:19:21;;;;;;;2.10;1.70;;;38.80;21.70;;;;;;6003175;29;20038;-72
2022/07/13 17:22:24;;;;;;;3.45;1.50;;;38.30;22.10;;;;;;6006884;29;20050;-71
2022/07/13 17:25:25;;;;;;;4.65;1.80;;;37.90;22.50;;;;;;6003938;29;20023;-71
2022/07/13 17:28:26;;;;;;;2.80;1.58;;;37.60;22.70;;;;;;6022826;29;20344;-72
2022/07/13 17:31:27;;;;;;;2.17;1.92;;;37.40;23.10;;;;;;6005289;29;20061;-71
2022/07/13 17:34:29;;;;;;;7.95;1.85;;;37.20;23.40;;;;;;5987333;29;20089;-73
2022/07/13 17:37:31;;;;;;;3.70;2.08;;;36.90;23.70;;;;;;6006214;29;20428;-71
2022/07/13 17:40:32;;;;;;;3.03;1.80;;;36.70;23.90;;;;;;6008315;29;20026;-74
2022/07/13 17:43:34;;;;;;;3.45;1.83;;;36.60;24.10;;;;;;6026298;29;20041;-73
2022/07/13 17:46:35;;;;;;;3.22;1.80;;;36.40;24.20;;;;;;6021948;29;20158;-73
2022/07/13 17:49:36;;;;;;;6.28;2.10;;;36.30;24.50;;;;;;6024613;29;20026;-73
2022/07/13 17:52:38;;;;;;;2.97;2.10;;;36.10;24.60;;;;;;6000500;29;20463;-74
2022/07/13 17:55:39;;;;;;;3.95;1.77;;;36.00;24.70;;;;;;6026143;29;20404;-73
2022/07/13 17:58:40;;;;;;;4.03;1.80;;;36.00;24.80;;;;;;6010331;29;20037;-74
2022/07/13 18:01:42;;;;;;;10.43;2.10;;;35.90;24.90;;;;;;6021406;29;20037;-73
2022/07/13 18:04:43;;;;;;;2.80;1.70;;;35.80;25.00;;;;;;5992747;29;20036;-73
2022/07/13 18:07:44;;;;;;;5.50;1.80;;;35.80;25.10;;;;;;6010172;29;20420;-72
2022/07/13 18:10:45;;;;;;;6.03;2.17;;;35.80;25.20;;;;;;6009550;29;20025;-74
2022/07/13 18:13:49;;;;;;;3.08;2.13;;;35.70;25.10;;;;;;6013818;29;20029;-71
2022/07/13 18:16:51;;;;;;;6.95;2.22;;;35.70;25.40;;;;;;6011564;29;20036;-72
2022/07/13 18:19:52;;;;;;;2.92;2.13;;;35.60;25.50;;;;;;6014356;29;20116;-74
2022/07/13 18:23:48;;;;;;;3.50;2.08;;;35.60;25.60;;;;;;6021337;29;20033;-73
2022/07/13 18:26:16;;;;;;;4.30;1.52;;;35.50;25.50;;;;;;6008439;29;20022;-72
2022/07/13 18:29:17;;;;;;;3.53;1.90;;;35.40;25.50;;;;;;6021666;29;20465;-73
2022/07/13 18:32:21;;;;;;;2.33;1.90;;;35.40;25.50;;;;;;6005711;29;20030;-73
2022/07/13 18:35:23;;;;;;;2.33;1.88;;;35.30;25.60;;;;;;6008245;29;20442;-72
2022/07/13 18:38:24;;;;;;;5.57;2.00;;;35.20;25.50;;;;;;5991982;29;20122;-74
2022/07/13 18:41:25;;;;;;;6.97;2.13;;;35.20;25.50;;;;;;6006540;29;20059;-75
2022/07/13 18:44:27;;;;;;;7.53;2.03;;;35.10;25.50;;;;;;6007720;29;20399;-73
2022/07/13 18:47:28;;;;;;;11.25;2.22;;;35.10;25.70;;;;;;6008887;29;20134;-73
2022/07/13 18:50:29;;;;;;;5.15;2.20;;;35.20;25.90;;;;;;6026345;29;20061;-73
2022/07/13 18:53:30;;;;;;;3.03;1.80;;;35.10;25.90;;;;;;6009574;29;20087;-73
2022/07/13 18:56:32;;;;;;;6.15;1.73;;;35.10;26.10;;;;;;5984135;29;20044;-72
2022/07/13 18:59:33;;;;;;;11.23;2.40;;;35.10;26.20;;;;;;6017342;29;20466;-73
2022/07/13 19:02:35;;;;;;;3.65;2.00;;;35.00;26.30;;;;;;6005056;29;20100;-75
2022/07/13 19:05:37;;;;;;;5.82;2.45;;;34.90;26.40;;;;;;6007062;29;20109;-74
2022/07/13 19:08:38;;;;;;;7.88;2.50;;;34.80;26.50;;;;;;6008344;29;20057;-74
2022/07/13 19:11:40;;;;;;;1.95;1.75;;;34.70;26.60;;;;;;6022917;29;20718;-74
2022/07/13 19:14:41;;;;;;;5.38;2.17;;;34.60;26.70;;;;;;6020335;29;20039;-74
2022/07/13 19:17:42;;;;;;;5.80;2.20;;;34.50;26.90;;;;;;6026602;29;20491;-74
2022/07/13 19:20:43;;;;;;;9.63;2.40;;;34.40;27.00;;;;;;6012707;29;20058;-73
2022/07/13 19:23:44;;;;;;;4.57;2.38;;;34.30;27.10;;;;;;6005545;29;20066;-73
2022/07/13 19:30:08;;;;;;;3.55;1.77;;;34.20;27.10;;;;;;6007766;29;20489;-73
2022/07/13 19:33:09;;;;;;;2.85;1.95;;;34.10;27.00;;;;;;6008173;29;20500;-75
2022/07/13 19:36:10;;;;;;;4.05;2.00;;;34.00;26.90;;;;;;6008762;29;20044;-74
2022/07/13 19:39:11;;;;;;;2.42;1.67;;;34.00;26.80;;;;;;6006661;29;20045;-76
2022/07/13 19:42:13;;;;;;;10.13;1.70;;;33.90;26.90;;;;;;6004783;29;20482;-79
2022/07/13 19:45:14;;;;;;;2.13;1.92;;;33.80;26.90;;;;;;5999256;29;20085;-76
2022/07/13 19:48:16;;;;;;;3.28;2.05;;;33.80;27.10;;;;;;6023803;29;20094;-74
2022/07/13 19:51:19;;;;;;;6.43;2.20;;;33.70;27.20;;;;;;6017771;29;20033;-73
2022/07/13 19:54:20;;;;;;;7.15;2.13;;;33.70;27.30;;;;;;6011993;29;20439;-73
2022/07/13 19:57:22;;;;;;;6.05;2.17;;;33.60;27.40;;;;;;6005832;29;20349;-72
2022/07/13 20:00:27;;;;;;;5.80;2.30;;;33.50;27.60;;;;;;6003130;29;20037;-74
2022/07/13 20:03:28;;;;;;;5.68;2.22;;;33.50;27.70;;;;;;6016415;29;20030;-73
2022/07/13 20:06:30;;;;;;;3.42;2.10;;;33.40;27.70;;;;;;6009636;29;20026;-73
2022/07/13 20:09:31;;;;;;;9.13;2.35;;;33.30;27.60;;;;;;6007548;29;20063;-73
2022/07/13 20:12:32;;;;;;;6.00;2.00;;;33.20;27.70;;;;;;6023120;29;20463;-73
2022/07/13 20:15:33;;;;;;;2.10;1.70;;;33.20;27.80;;;;;;6009616;29;20044;-74
2022/07/13 20:18:35;;;;;;;2.72;2.10;;;33.10;27.70;;;;;;6029852;29;20041;-73
2022/07/13 20:21:36;;;;;;;2.05;1.67;;;33.00;27.70;;;;;;6020817;29;20117;-74
2022/07/13 20:24:37;;;;;;;3.80;1.83;;;33.00;27.70;;;;;;6021896;29;20029;-75
2022/07/13 20:27:41;;;;;;;1.98;1.58;;;32.90;27.60;;;;;;6005648;29;20404;-75
2022/07/13 20:30:42;;;;;;;2.60;2.10;;;32.80;27.70;;;;;;6003873;29;20033;-74
2022/07/13 20:33:51;;;;;;;2.75;2.10;;;32.80;27.70;;;;;;6005174;29;20049;-75
2022/07/13 20:36:52;;;;;;;4.45;1.60;;;32.70;27.80;;;;;;6006885;29;20112;-73
2022/07/13 20:39:54;;;;;;;3.47;1.50;;;32.60;27.80;;;;;;6006652;29;20037;-74
2022/07/13 20:42:56;;;;;;;2.90;1.90;;;32.50;27.80;;;;;;6010507;29;20117;-75
2022/07/13 20:45:57;;;;;;;4.00;1.90;;;32.40;27.80;;;;;;6009088;29;20109;-73
2022/07/13 20:48:58;;;;;;;12.35;1.70;;;32.40;27.90;;;;;;5994171;29;20022;-78
2022/07/13 20:52:00;;;;;;;3.00;1.88;;;32.30;27.90;;;;;;6000253;29;20054;-79
2022/07/13 20:55:01;;;;;;;5.55;1.60;;;32.30;28.10;;;;;;6006585;29;20097;-78
2022/07/13 20:58:02;;;;;;;2.25;1.77;;;32.20;28.10;;;;;;6017729;29;20410;-77
2022/07/13 21:01:04;;;;;;;4.55;2.10;;;32.20;28.00;;;;;;6023523;29;20144;-78
2022/07/13 21:04:05;;;;;;;3.38;1.60;;;32.10;28.00;;;;;;6009040;29;20046;-78
2022/07/13 21:07:07;;;;;;;2.90;1.90;;;32.00;28.60;;;;;;6008877;29;20030;-77
2022/07/13 21:10:08;;;;;;;4.55;1.77;;;32.00;28.30;;;;;;6005850;29;20037;-77
2022/07/13 21:13:10;;;;;;;2.00;1.55;;;31.90;28.20;;;;;;6005260;29;20117;-77
2022/07/13 21:16:12;;;;;;;2.03;1.40;;;31.80;28.30;;;;;;6018650;29;20046;-75
2022/07/13 21:19:13;;;;;;;2.13;1.52;;;31.80;28.40;;;;;;6010690;29;20088;-78
2022/07/13 21:22:15;;;;;;;2.15;1.70;;;31.70;28.40;;;;;;6003992;29;20026;-78
2022/07/13 21:28:37;;;;;;;2.85;1.60;;;31.60;28.40;;;;;;6018366;29;20034;-78
2022/07/13 21:31:39;;;;;;;3.65;1.83;;;31.60;28.40;;;;;;6006069;29;20344;-78
2022/07/13 21:34:42;;;;;;;6.38;1.88;;;31.50;28.40;;;;;;6004767;29;20456;-78
2022/07/13 21:37:44;;;;;;;5.63;1.75;;;31.60;28.50;;;;;;6005019;29;20066;-78
2022/07/13 21:40:48;;;;;;;2.20;1.63;;;31.60;28.50;;;;;;5994009;29;20404;-78
2022/07/13 21:43:50;;;;;;;2.67;1.83;;;31.50;28.50;;;;;;5984448;29;20038;-77
2022/07/13 21:46:54;;;;;;;2.33;1.40;;;31.50;28.60;;;;;;5976832;29;20049;-77
2022/07/13 21:49:56;;;;;;;3.03;1.98;;;31.50;28.60;;;;;;5990799;29;20037;-77
2022/07/13 21:52:57;;;;;;;7.82;1.80;;;31.40;28.60;;;;;;5979283;29;20072;-77
2022/07/13 21:55:58;;;;;;;3.58;1.30;;;31.50;28.60;;;;;;5952002;29;20444;-76
2022/07/13 21:59:00;;;;;;;6.88;1.70;;;31.40;28.50;;;;;;5932997;29;20049;-76
2022/07/13 22:02:01;;;;;;;3.78;1.42;;;31.40;28.50;;;;;;5953034;29;20562;-77
2022/07/13 22:05:19;;;;;;;8.45;1.70;;;31.40;28.50;;;;;;5944085;29;20048;-77
2022/07/13 22:08:20;;;;;;;1.88;1.67;;;31.40;28.60;;;;;;5951825;29;20102;-76
2022/07/13 22:12:02;;;;;;;2.38;1.70;;;31.40;28.70;;;;;;5944139;29;20077;-76
2022/07/13 22:15:40;;;;;;;2.88;1.80;;;31.30;28.80;;;;;;5967265;29;20073;-78
2022/07/13 22:19:22;;;;;;;3.08;1.95;;;31.30;28.90;;;;;;5935363;29;20053;-78
2022/07/13 22:23:00;;;;;;;1.70;1.60;;;31.20;29.00;;;;;;5961293;29;20045;-78
2022/07/13 22:26:39;;;;;;;3.40;2.00;;;31.20;29.10;;;;;;5961264;29;20894;-77
2022/07/13 22:30:18;;;;;;;4.53;1.73;;;31.20;29.00;;;;;;5962162;29;20369;-79
2022/07/13 22:33:57;;;;;;;3.35;1.95;;;31.20;29.00;;;;;;5947160;29;20049;-77
2022/07/13 22:37:36;;;;;;;5.78;1.65;;;31.20;28.90;;;;;;5950564;29;20067;-78
2022/07/13 22:41:15;;;;;;;5.15;1.67;;;31.10;28.90;;;;;;5949823;29;20084;-78
2022/07/13 22:44:53;;;;;;;2.33;1.60;;;31.10;28.90;;;;;;5945273;29;20049;-77
2022/07/13 22:48:32;;;;;;;6.30;1.30;;;31.20;29.00;;;;;;5971483;29;20030;-75
2022/07/13 22:52:11;;;;;;;3.17;1.65;;;31.20;29.10;;;;;;5955856;29;20109;-75
2022/07/13 22:55:50;;;;;;;9.57;1.73;;;31.20;29.20;;;;;;5956488;29;20048;-75
2022/07/13 22:59:29;;;;;;;1.87;1.43;;;31.20;29.40;;;;;;5956603;29;20046;-76
2022/07/13 23:03:08;;;;;;;7.57;1.70;;;31.20;29.50;;;;;;5963437;29;20165;-74
2022/07/13 23:06:46;;;;;;;5.25;1.70;;;31.20;29.60;;;;;;5960593;29;20337;-76
2022/07/13 23:10:25;;;;;;;1.75;1.45;;;31.20;29.70;;;;;;5965225;29;20038;-74
2022/07/13 23:14:03;;;;;;;2.55;1.73;;;31.10;29.80;;;;;;5974052;29;20029;-75
2022/07/13 23:17:42;;;;;;;3.00;2.20;;;31.10;29.90;;;;;;5948592;29;20089;-75
2022/07/13 23:21:21;;;;;;;4.43;2.28;;;31.10;30.00;;;;;;5950105;29;20066;-75
2022/07/13 23:25:00;;;;;;;2.50;2.27;;;31.00;30.10;;;;;;5975574;29;20098;-74
2022/07/13 23:28:10;;;;;;;4.38;2.00;;;31.00;30.20;;;;;;5975959;29;21142;-73
2022/07/13 23:31:29;;;;;;;3.10;2.53;;;30.90;30.30;;;;;;5980147;29;20045;-73
2022/07/13 23:34:30;;;;;;;3.47;2.25;;;30.90;30.50;;;;;;5970188;29;20053;-73
2022/07/13 23:37:32;;;;;;;3.90;2.33;;;30.90;30.70;;;;;;5975365;29;20715;-75
2022/07/13 23:40:33;;;;;;;3.28;1.92;;;30.80;30.90;;;;;;5937183;29;20042;-74
2022/07/13 23:43:34;;;;;;;7.75;2.03;;;30.80;31.10;;;;;;5964711;29;20044;-74
2022/07/13 23:46:35;;;;;;;2.33;1.92;;;30.60;31.10;;;;;;5954172;29;20392;-74
2022/07/13 23:49:36;;;;;;;3.47;2.20;;;30.60;31.10;;;;;;5943040;29;20541;-74
2022/07/13 23:52:39;;;;;;;6.00;3.30;;;30.60;31.50;;;;;;5957270;29;20042;-74
2022/07/13 23:55:40;;;;;;;3.53;1.90;;;30.50;31.20;;;;;;5944269;29;20708;-74
2022/07/13 23:58:41;;;;;;;3.63;2.40;;;30.50;31.30;;;;;;5954431;29;20038;-75
